Welcome!

Visit our other weather sites:

Template documentation
and downloads

And another site



There are no active watches, warnings or advisories

Select another period ( hide this area )

Units Period Custom range Directly to
Metric English Both
Daily Weekly Monthly Yearly
use both date-selectors for a custom range
previous Day
With this date

WeatherUnderground graphs for this period ( click here )


Daily Summary for Thursday Feb 27 2020
Time Temp. ( °C ) Dew pt. ( °C ) Wind ( km/h ) from Gust ( km/h ) Pressure ( hPa ) Humid.( % ) Rainrate ( cm )
High5,2 -0,2 22,5 West ( 977/2360 ) 29,0 1024,6 86 0,25
Average-0,2 -5,4 13,2 West #123/287 17,9 1022,6 68 0,00
Low-5,0 -9,8 1,6   8,0 1020,5 52 -
Daily Tabular details for Thursday Feb 27 2020
Time Temp. ( °C ) Dew pt. ( °C ) Wind ( km/h ) from Gust ( km/h ) Pressure ( hPa ) Humid.( % ) Rainrate ( cm )
00:00 -2,1 -9,1 14,5 SW 20,9 1023,6 59 -
00:05 -2,1 -9,1 12,9 SW 20,9 1023,6 59 -
00:10 -2,2 -9,1 11,3 SW 19,3 1023,6 59 -
00:15 -2,2 -9,1 8,0 SW 14,5 1023,6 59 -
00:20 -2,2 -9,2 11,3 SW 14,5 1023,2 59 -
00:25 -2,3 -9,2 9,7 WSW 14,5 1023,2 59 -
00:30 -2,3 -9,3 8,0 SW 11,3 1023,2 59 -
00:35 -2,4 -9,2 9,7 SW 14,5 1023,2 60 -
00:40 -2,6 -9,3 11,3 SW 14,5 1022,9 60 -
00:45 -2,6 -9,3 14,5 SW 19,3 1022,9 60 -
00:50 -2,7 -9,2 9,7 SW 16,1 1022,9 61 -
00:55 -2,8 -9,3 9,7 SW 12,9 1022,9 61 -
01:00 -2,8 -9,3 9,7 SW 14,5 1022,9 61 -
01:05 -2,9 -9,4 9,7 SW 12,9 1022,6 61 -
01:10 -3,0 -9,3 4,8 SW 11,3 1022,9 62 -
01:15 -3,1 -9,3 8,0 WSW 11,3 1022,6 62 -
01:20 -3,2 -9,4 8,0 WSW 9,7 1022,6 62 -
01:25 -3,3 -9,6 8,0 WSW 9,7 1022,6 62 -
01:30 -3,4 -9,5 4,8 WSW 9,7 1022,6 63 -
01:35 -3,5 -9,6 4,8 WSW 9,7 1022,6 63 -
01:40 -3,6 -9,6 8,0 WSW 11,3 1022,6 63 -
01:45 -3,7 -9,5 8,0 WSW 11,3 1022,6 64 -
01:50 -3,7 -9,5 8,0 WSW 14,5 1022,6 64 -
01:55 -3,7 -9,5 9,7 West 11,3 1022,6 64 -
02:00 -3,5 -9,3 11,3 West 12,9 1022,6 64 -
02:05 -3,4 -9,5 9,7 West 12,9 1022,6 63 -
02:10 -3,6 -9,4 9,7 West 11,3 1022,6 64 -
02:15 -3,8 -9,6 11,3 West 12,9 1022,6 64 -
02:20 -3,9 -9,5 12,9 West 14,5 1022,2 65 -
02:25 -3,9 -9,6 11,3 West 14,5 1022,2 65 -
02:30 -4,1 -9,7 9,7 West 11,3 1022,2 65 -
02:35 -4,2 -9,6 11,3 West 12,9 1022,2 66 -
02:40 -4,3 -9,7 9,7 WSW 12,9 1021,9 66 -
02:45 -4,4 -9,8 9,7 WSW 9,7 1021,9 66 -
02:50 -4,4 -9,7 8,0 WSW 9,7 1021,6 67 -
02:55 -4,4 -9,6 4,8 WSW 9,7 1021,6 67 -
03:00 -4,4 -9,6 8,0 WSW 9,7 1021,6 67 -
03:05 -4,4 -9,6 13,0 West 9,8 1021,9 67 -
03:10 -4,3 -9,3 9,7 West 12,9 1021,6 68 -
03:15 -4,1 -9,1 8,0 West 12,9 1021,6 68 -
03:20 -3,9 -8,7 8,0 West 9,7 1021,6 69 -
03:25 -3,8 -8,6 4,8 West 9,7 1021,6 69 -
03:30 -3,6 -8,5 8,0 West 11,3 1021,2 69 -
03:35 -3,4 -8,3 9,7 WSW 12,9 1021,2 69 -
03:40 -3,4 -8,4 8,0 West 11,3 1021,2 68 -
03:45 -3,3 -8,4 9,7 West 11,3 1021,2 68 -
03:50 -3,3 -8,3 11,3 West 12,9 1021,2 68 -
03:55 -3,2 -8,2 11,3 West 12,9 1021,2 68 -
04:00 -3,2 -8,2 12,9 West 14,5 1021,2 68 -
04:05 -3,2 -8,3 12,9 West 14,5 1021,2 68 -
04:10 -3,3 -8,4 11,3 West 14,5 1021,2 68 -
04:15 -3,4 -8,5 12,9 West 14,5 1021,2 68 -
04:20 -3,4 -8,3 12,9 West 14,5 1021,2 69 -
04:25 -3,4 -8,3 12,9 West 14,5 1021,2 69 -
04:30 -3,3 -8,2 14,5 West 16,1 1021,2 69 -
04:35 -3,4 -8,5 12,9 West 16,1 1021,2 68 -
04:40 -3,6 -8,6 12,9 West 14,5 1020,9 68 -
04:45 -3,6 -8,6 14,5 West 16,1 1020,9 68 -
04:50 -3,5 -8,6 14,5 West 16,1 1020,9 68 -
04:55 -3,6 -8,8 16,1 West 19,3 1020,9 67 -
05:00 -3,7 -8,9 14,5 West 19,3 1020,9 67 -
05:05 -3,7 -8,8 14,5 West 16,1 1020,9 68 -
05:10 -3,8 -8,8 13,0 West 12,2 1020,9 68 -
05:15 -3,8 -8,9 9,7 West 12,9 1020,9 68 -
05:20 -4,0 -9,2 8,0 West 9,7 1020,9 67 -
05:25 -4,1 -9,1 9,7 West 11,3 1020,5 68 -
05:30 -4,1 -9,2 9,7 West 11,3 1020,5 68 -
05:35 -4,2 -9,2 8,0 WSW 9,7 1020,5 68 -
05:40 -4,2 -9,1 8,0 WSW 9,7 1020,5 69 -
05:45 -4,3 -9,1 8,0 WSW 9,7 1021,2 69 -
05:50 -4,3 -9,2 11,3 WNW 14,5 1021,2 69 -
05:55 -4,6 -9,6 12,9 WNW 16,1 1021,2 68 -
06:00 -4,6 -9,4 12,9 WNW 19,3 1020,9 69 -
06:05 -4,4 -9,3 14,8 West 12,1 1021,2 69 -
06:10 -4,4 -9,2 14,5 WNW 19,3 1021,2 69 -
06:15 -4,2 -9,1 14,5 WNW 20,9 1021,2 69 -
06:20 -4,2 -9,0 11,3 WNW 19,3 1021,2 69 -
06:25 -4,2 -9,1 11,3 WNW 16,1 1021,2 69 -
06:30 -4,3 -9,2 9,7 WNW 12,9 1021,2 69 -
06:35 -4,4 -9,3 12,9 WNW 16,1 1021,2 69 -
06:40 -4,4 -9,3 14,5 WNW 19,3 1021,2 69 -
06:45 -4,4 -9,2 11,3 WNW 16,1 1021,2 69 -
06:50 -4,4 -9,3 12,9 WNW 16,1 1021,2 69 -
06:55 -4,6 -9,4 12,9 West 16,1 1021,2 69 -
07:00 -4,6 -9,4 11,3 West 16,1 1021,2 69 -
07:05 -4,7 -9,6 12,9 West 16,1 1021,6 69 -
07:10 -4,7 -9,4 11,3 West 16,1 1021,6 70 -
07:15 -4,8 -9,4 11,3 WSW 12,9 1021,6 70 -
07:20 -4,9 -9,6 9,7 WSW 12,9 1021,6 70 -
07:25 -5,0 -9,6 11,3 WSW 12,9 1021,6 70 -
07:30 -5,0 -9,4 11,3 West 12,9 1021,6 71 -
07:35 -4,9 -9,4 11,3 WSW 14,5 1021,6 71 -
07:40 -4,9 -9,3 12,9 WSW 14,5 1021,6 71 -
07:45 -4,8 -9,3 9,7 WSW 14,5 1021,6 71 -
07:50 -4,7 -9,0 12,9 WSW 19,3 1021,9 72 -
07:55 -4,6 -8,9 12,9 West 19,3 1021,9 72 -
08:00 -4,4 -8,7 11,3 West 19,3 1021,9 72 -
08:05 -4,3 -8,6 11,3 West 14,5 1021,9 72 -
08:10 -4,1 -8,4 11,3 West 16,1 1021,9 72 -
08:15 -3,9 -8,2 11,3 West 12,9 1021,9 72 -
08:20 -3,6 -7,9 14,5 West 19,3 1021,9 72 -
08:25 -3,3 -7,6 11,3 West 19,3 1021,9 72 -
08:30 -3,1 -7,7 1,6 WNW 12,9 1021,9 71 -
08:35 -2,9 -7,5 9,7 WNW 11,3 1021,9 71 -
08:40 -2,8 -7,4 4,8 West 11,3 1021,9 71 -
08:45 -2,7 -7,3 8,0 West 11,3 1022,2 71 -
08:50 -2,6 -7,2 12,9 West 12,9 1022,2 71 -
08:55 -2,2 -6,8 11,3 West 19,3 1022,2 71 -
09:00 -1,7 -6,1 11,3 West 16,1 1022,6 72 -
09:05 -1,2 -5,9 16,1 West 19,3 1022,2 70 -
09:10 -0,8 -5,7 19,3 West 20,9 1022,2 69 -
09:15 -0,4 -5,6 19,3 West 24,1 1022,6 68 -
09:20 0,1 -5,2 14,5 West 20,9 1022,6 68 -
09:25 0,7 -4,9 19,3 West 16,6 1022,2 66 -
09:30 1,0 -4,8 14,5 WNW 20,9 1022,6 65 -
09:35 1,4 -4,6 12,9 WNW 19,3 1022,2 64 -
09:40 1,9 -4,4 12,9 WNW 20,9 1022,6 63 -
09:45 2,4 -4,1 12,9 WNW 24,1 1022,2 62 -
09:50 2,7 -4,5 14,5 WNW 20,9 1022,6 59 -
09:55 2,9 -4,3 12,9 WNW 22,5 1022,6 59 -
10:00 3,1 -4,4 14,5 WNW 19,3 1022,2 58 -
10:05 3,4 -4,3 14,5 NW 20,9 1022,6 57 -
10:10 3,6 -4,6 19,3 NNW 22,5 1022,6 55 -
10:15 3,7 -4,6 14,5 NNW 20,9 1022,6 55 -
10:20 3,8 -4,7 12,9 NW 19,3 1022,6 54 -
10:25 3,9 -4,6 12,9 NNW 19,3 1022,6 54 -
10:30 3,9 -4,8 14,5 NNW 19,3 1022,6 53 -
10:35 4,0 -4,7 12,9 NNW 19,3 1022,6 53 -
10:40 4,2 -4,6 14,5 NNW 19,3 1022,6 53 -
10:45 4,3 -4,4 14,5 NNW 19,3 1022,6 53 -
10:50 4,6 -4,2 11,3 NNW 20,9 1022,6 53 -
10:55 4,7 -4,1 14,5 NNW 19,3 1022,6 53 -
11:00 4,7 -4,1 14,5 NNW 20,9 1022,6 53 -
11:05 4,7 -3,8 16,1 NNW 20,9 1022,6 54 -
11:10 4,7 -3,8 14,5 NNW 19,3 1022,6 54 -
11:15 4,7 -3,8 14,5 North 20,9 1022,6 54 -
11:20 4,8 -3,7 14,5 North 19,3 1022,6 54 -
11:25 4,9 -3,6 12,9 North 19,3 1022,6 54 -
11:30 5,0 -3,6 12,9 North 19,3 1022,6 54 -
11:35 5,2 -3,7 12,9 North 20,9 1022,6 53 -
11:40 5,2 -3,8 19,3 North 20,9 1022,6 52 -
11:45 5,1 -3,7 14,5 North 20,9 1022,6 53 -
11:50 5,1 -3,7 14,5 North 20,9 1022,6 53 -
11:55 5,0 -3,8 14,5 North 20,9 1022,6 53 -
12:00 4,9 -3,8 12,9 North 22,5 1022,9 53 -
12:05 4,9 -3,9 16,1 North 22,5 1022,9 53 -
12:10 4,6 -3,5 19,3 NNW 25,7 1022,9 56 -
12:15 4,3 -3,1 19,3 NW 25,7 1022,9 59 -
12:20 4,1 -3,0 19,3 NNW 25,7 1022,9 60 -
12:25 3,9 -2,8 16,1 NW 25,7 1022,9 62 -
12:30 3,6 -2,6 19,3 NW 24,1 1023,2 64 -
12:35 3,4 -2,6 20,9 NW 25,7 1023,2 65 -
12:40 3,2 -2,5 20,9 NW 25,7 1023,2 66 -
12:45 3,1 -2,7 20,9 NW 27,4 1023,2 66 -
12:50 3,0 -2,6 20,9 NW 29,0 1023,2 67 -
12:55 2,8 -2,5 19,3 NW 24,1 1023,2 68 -
13:00 2,6 -2,3 14,5 NW 29,0 1023,6 70 -
13:05 2,4 -2,3 20,9 NW 27,4 1023,6 71 -
13:10 2,3 -2,3 19,3 NW 27,4 1023,6 72 -
13:15 2,1 -2,2 14,5 NW 22,5 1023,6 73 -
13:20 2,1 -2,1 16,1 NW 22,5 1023,6 74 -
13:25 1,9 -2,1 14,5 WNW 20,9 1023,6 75 -
13:30 1,8 -2,0 16,1 WNW 22,5 1023,6 76 -
13:35 1,7 -1,9 16,1 WNW 22,5 1023,6 77 -
13:40 1,6 -2,0 14,5 WNW 22,5 1023,6 77 -
13:45 1,6 -1,9 14,5 WNW 22,5 1023,6 78 -
13:50 1,5 -1,7 14,5 WNW 24,1 1023,6 79 0,25
13:55 1,4 -1,6 14,5 WNW 20,9 1023,6 80 -
14:00 1,4 -1,7 12,9 WNW 19,3 1023,6 80 -
14:05 1,4 -1,5 11,3 WNW 19,3 1023,6 81 -
14:10 1,4 -1,3 14,5 WNW 19,3 1023,6 82 -
14:15 1,3 -1,4 16,1 WNW 22,5 1023,6 82 -
14:20 1,3 -1,2 14,5 WNW 19,3 1023,6 83 -
14:25 1,4 -0,9 16,1 NW 20,9 1023,6 84 -
14:30 1,6 -0,6 14,5 WNW 22,5 1023,6 85 -
14:35 1,8 -0,3 16,1 WNW 22,5 1023,6 86 -
14:40 1,9 -0,2 19,3 WNW 24,1 1023,6 86 -
14:45 1,8 -0,4 14,5 WNW 24,1 1023,6 85 -
14:50 1,9 -0,3 14,5 WNW 20,9 1023,6 85 -
14:55 2,1 -0,2 14,5 WNW 24,1 1023,6 85 -
15:00 2,2 -0,4 12,9 WNW 22,5 1023,6 83 -
15:05 2,2 -0,9 16,1 WNW 27,4 1023,6 80 -
15:10 2,4 -0,8 19,3 WNW 25,7 1023,6 79 -
15:15 2,6 -1,1 19,3 NW 27,4 1023,6 77 -
15:20 2,6 -1,4 16,1 NW 27,4 1023,9 75 -
15:25 2,7 -1,3 20,9 NW 27,4 1023,9 75 -
15:30 2,6 -1,6 16,1 NW 29,0 1023,9 74 -
15:35 2,7 -1,5 14,5 NW 24,1 1023,9 74 -
15:40 2,7 -1,3 16,1 NW 19,3 1023,9 75 -
15:45 2,8 -1,4 14,5 NW 24,1 1023,9 74 -
15:50 2,8 -1,6 19,3 NW 27,4 1023,9 73 -
15:55 2,8 -1,6 20,9 NW 27,4 1023,9 73 -
16:00 2,9 -1,7 16,1 NW 27,4 1024,3 72 -
16:05 2,9 -1,6 16,1 NW 22,5 1024,3 72 -
16:10 3,0 -1,6 20,9 WNW 27,4 1024,3 72 -
16:15 3,0 -1,7 19,3 NW 24,1 1024,3 71 -
16:20 3,1 -1,7 22,5 NW 27,4 1024,3 71 -
16:25 3,2 -1,6 16,1 NW 25,7 1024,3 71 -
16:30 3,2 -1,6 20,9 NW 27,4 1024,3 71 -
16:35 3,2 -1,6 16,1 NW 25,7 1024,3 71 -
16:40 3,2 -1,6 19,3 NW 25,7 1024,3 71 -
16:45 3,2 -1,4 14,5 NW 22,5 1024,3 72 -
16:50 3,2 -1,6 19,3 WNW 24,1 1024,3 71 -
16:55 3,3 -1,3 12,9 WNW 20,9 1024,3 72 -
17:00 3,3 -1,6 16,1 NW 24,1 1024,3 70 -
17:05 3,4 -1,7 16,1 NW 29,0 1024,3 69 -
17:10 3,5 -1,7 14,5 WNW 19,3 1024,3 69 -
17:15 3,6 -1,6 12,9 WNW 19,3 1024,3 69 -
17:20 3,6 -1,7 12,9 WNW 19,3 1024,6 68 -
17:25 3,4 -1,9 14,5 WNW 19,3 1024,6 68 -
17:30 3,3 -1,9 12,9 WNW 19,3 1024,6 69 -
17:35 3,1 -2,1 12,9 WNW 16,1 1024,6 69 -
17:40 3,1 -2,1 9,7 WNW 14,5 1024,6 69 -
17:45 3,1 -1,9 11,3 WNW 12,9 1024,6 70 -
17:50 3,0 -2,1 9,7 WNW 16,1 1024,6 69 -
17:55 2,9 -2,2 11,3 WNW 16,1 1024,6 69 -
18:00 2,8 -2,5 11,3 WNW 14,5 1024,6 68 -
18:05 2,7 -2,6 12,9 WNW 14,5 1024,6 68 -
18:10 2,7 -2,7 12,9 WNW 14,5 1024,6 68 -
18:15 2,7 -2,6 12,9 WNW 14,5 1024,6 68 -
18:20 2,8 -2,6 11,3 WNW 14,5 1024,6 68 -
18:25 2,8 -2,7 11,3 WNW 12,9 1024,6 67 -
18:30 2,8 -2,7 11,3 WNW 14,5 1024,6 67 -
18:35 2,8 -2,7 11,3 WNW 12,9 1024,6 67 -
18:40 2,8 -2,7 9,7 WNW 12,9 1024,6 67 -
18:45 2,8 -2,6 11,3 West 11,3 1024,6 68 -
18:50 2,7 -2,7 11,3 West 11,3 1024,6 68 -
18:55 2,4 -2,9 9,7 West 11,3 1024,6 68 -
19:00 2,1 -3,1 9,7 West 9,7 1024,6 69 -
19:05 1,8 -3,1 8,0 West 9,7 1024,6 70 -
19:10 1,6 -3,1 4,8 West 8,0 1024,6 71 -
19:15 1,5 -3,2 4,8 West 8,0 1024,6 71 -
19:20 1,4 -3,3 9,7 West 11,3 1024,6 71 -
19:25 1,5 -3,0 12,9 West 14,5 1024,6 72 -
19:30 1,7 -2,8 14,5 West 16,1 1024,6 72 -
19:35 1,8 -2,9 14,5 West 19,3 1024,6 71 -
19:40 1,7 -3,0 14,5 West 16,1 1024,6 71 -
19:45 1,6 -3,1 16,1 West 19,3 1024,6 71 -
19:50 1,1 -3,8 11,3 West 16,1 1024,6 70 -
19:55 0,7 -3,9 16,1 West 19,3 1024,6 71 -
20:00 0,7 -3,8 16,1 West 19,3 1024,6 72 -
20:05 0,6 -3,9 16,1 West 19,3 1024,6 72 -
20:10 0,5 -3,9 16,1 West 19,3 1024,6 72 -
20:15 0,4 -4,2 14,5 West 19,3 1024,6 71 -
20:20 0,4 -4,2 16,1 West 19,3 1024,6 71 -
20:25 0,3 -4,3 14,5 West 19,3 1024,6 71 -
20:30 0,3 -4,2 14,5 West 16,1 1024,6 72 -
20:35 0,2 -4,2 14,5 West 16,1 1024,3 72 -
20:40 0,1 -4,6 12,9 West 16,1 1024,3 71 -
20:45 -0,1 -4,7 12,9 West 14,5 1024,3 71 -
20:50 -0,2 -4,7 12,9 West 14,5 1024,3 72 -
20:55 -0,2 -4,7 12,9 West 16,1 1024,3 72 -
21:00 -0,3 -4,9 12,9 West 16,1 1024,3 71 -
21:05 -0,3 -4,9 12,9 West 19,3 1024,3 71 -
21:10 -0,4 -5,0 11,3 West 14,5 1024,3 71 -
21:15 -0,6 -5,2 11,3 West 14,5 1024,3 71 -
21:20 -0,7 -5,3 12,9 West 14,5 1024,3 71 -
21:25 -0,8 -5,2 12,9 West 14,5 1024,3 72 -
21:30 -0,8 -5,3 12,9 West 14,5 1024,3 72 -
21:35 -0,9 -5,4 12,9 West 16,1 1024,3 72 -
21:40 -1,1 -5,5 14,5 West 16,1 1024,3 72 -
21:45 -1,2 -5,6 14,5 West 19,3 1024,3 72 -
21:50 -1,2 -5,6 14,5 West 19,3 1024,3 72 -
21:55 -1,2 -5,4 12,9 West 16,1 1024,3 73 -
22:00 -1,1 -5,3 14,5 West 19,3 1024,3 73 -
22:05 -0,9 -5,2 14,5 West 19,3 1024,3 73 -
22:10 -0,9 -5,3 12,9 West 19,3 1024,6 72 -
22:15 -0,8 -5,2 12,9 West 19,3 1024,3 72 -
22:20 -0,7 -5,2 12,9 West 16,1 1024,6 72 -
22:25 -0,8 -5,2 12,9 West 16,1 1024,6 72 -
22:30 -0,7 -5,2 12,9 West 16,1 1024,6 72 -
22:35 -0,7 -5,1 14,5 West 19,3 1024,6 72 -
22:40 -0,6 -5,1 16,1 West 19,3 1024,3 72 -
22:45 -0,6 -5,0 14,5 West 20,9 1024,3 72 -
22:50 -0,6 -5,0 16,1 West 20,9 1024,3 72 -
22:55 -0,4 -4,9 16,1 West 22,5 1024,3 72 -
23:00 -0,4 -4,8 16,1 West 22,5 1024,3 72 -
23:05 -0,3 -4,9 16,1 West 22,5 1024,3 71 -
23:10 -0,3 -4,8 16,1 West 22,5 1024,3 72 -
23:15 -0,3 -4,9 14,5 West 22,5 1023,9 71 -
23:20 -0,3 -4,9 14,5 West 22,5 1023,9 71 -
23:25 -0,3 -4,9 16,1 West 19,3 1023,9 71 -
23:30 -0,3 -4,9 16,1 West 20,9 1023,9 71 -
23:35 -0,3 -4,9 16,1 West 22,5 1023,9 71 -
23:40 -0,2 -4,8 19,3 West 20,9 1023,9 71 -
23:45 -0,2 -4,8 16,1 West 22,5 1023,9 71 -
23:50 -0,2 -4,8 19,3 West 20,9 1023,9 71 -
Daily Summary for Thursday Feb 27 2020
Time Temp. ( °C ) Dew pt. ( °C ) Wind ( km/h ) from Gust ( km/h ) Pressure ( hPa ) Humid.( % ) Rainrate ( cm )
High5,2 -0,2 22,5 West ( 977/2360 ) 29,0 1024,6 86 0,25
Average-0,2 -5,4 13,2 West #123/287 17,9 1022,6 68 0,00
Low-5,0 -9,8 1,6   8,0 1020,5 52 -
Daily Tabular details for Thursday Feb 27 2020
Time Temp. ( °C ) Dew pt. ( °C ) Wind ( km/h ) from Gust ( km/h ) Pressure ( hPa ) Humid.( % ) Rainrate ( cm )
00:00 -2,1 -9,1 14,5 SW 20,9 1023,6 59 -
00:05 -2,1 -9,1 12,9 SW 20,9 1023,6 59 -
00:10 -2,2 -9,1 11,3 SW 19,3 1023,6 59 -
00:15 -2,2 -9,1 8,0 SW 14,5 1023,6 59 -
00:20 -2,2 -9,2 11,3 SW 14,5 1023,2 59 -
00:25 -2,3 -9,2 9,7 WSW 14,5 1023,2 59 -
00:30 -2,3 -9,3 8,0 SW 11,3 1023,2 59 -
00:35 -2,4 -9,2 9,7 SW 14,5 1023,2 60 -
00:40 -2,6 -9,3 11,3 SW 14,5 1022,9 60 -
00:45 -2,6 -9,3 14,5 SW 19,3 1022,9 60 -
00:50 -2,7 -9,2 9,7 SW 16,1 1022,9 61 -
00:55 -2,8 -9,3 9,7 SW 12,9 1022,9 61 -
01:00 -2,8 -9,3 9,7 SW 14,5 1022,9 61 -
01:05 -2,9 -9,4 9,7 SW 12,9 1022,6 61 -
01:10 -3,0 -9,3 4,8 SW 11,3 1022,9 62 -
01:15 -3,1 -9,3 8,0 WSW 11,3 1022,6 62 -
01:20 -3,2 -9,4 8,0 WSW 9,7 1022,6 62 -
01:25 -3,3 -9,6 8,0 WSW 9,7 1022,6 62 -
01:30 -3,4 -9,5 4,8 WSW 9,7 1022,6 63 -
01:35 -3,5 -9,6 4,8 WSW 9,7 1022,6 63 -
01:40 -3,6 -9,6 8,0 WSW 11,3 1022,6 63 -
01:45 -3,7 -9,5 8,0 WSW 11,3 1022,6 64 -
01:50 -3,7 -9,5 8,0 WSW 14,5 1022,6 64 -
01:55 -3,7 -9,5 9,7 West 11,3 1022,6 64 -
02:00 -3,5 -9,3 11,3 West 12,9 1022,6 64 -
02:05 -3,4 -9,5 9,7 West 12,9 1022,6 63 -
02:10 -3,6 -9,4 9,7 West 11,3 1022,6 64 -
02:15 -3,8 -9,6 11,3 West 12,9 1022,6 64 -
02:20 -3,9 -9,5 12,9 West 14,5 1022,2 65 -
02:25 -3,9 -9,6 11,3 West 14,5 1022,2 65 -
02:30 -4,1 -9,7 9,7 West 11,3 1022,2 65 -
02:35 -4,2 -9,6 11,3 West 12,9 1022,2 66 -
02:40 -4,3 -9,7 9,7 WSW 12,9 1021,9 66 -
02:45 -4,4 -9,8 9,7 WSW 9,7 1021,9 66 -
02:50 -4,4 -9,7 8,0 WSW 9,7 1021,6 67 -
02:55 -4,4 -9,6 4,8 WSW 9,7 1021,6 67 -
03:00 -4,4 -9,6 8,0 WSW 9,7 1021,6 67 -
03:05 -4,4 -9,6 13,0 West 9,8 1021,9 67 -
03:10 -4,3 -9,3 9,7 West 12,9 1021,6 68 -
03:15 -4,1 -9,1 8,0 West 12,9 1021,6 68 -
03:20 -3,9 -8,7 8,0 West 9,7 1021,6 69 -
03:25 -3,8 -8,6 4,8 West 9,7 1021,6 69 -
03:30 -3,6 -8,5 8,0 West 11,3 1021,2 69 -
03:35 -3,4 -8,3 9,7 WSW 12,9 1021,2 69 -
03:40 -3,4 -8,4 8,0 West 11,3 1021,2 68 -
03:45 -3,3 -8,4 9,7 West 11,3 1021,2 68 -
03:50 -3,3 -8,3 11,3 West 12,9 1021,2 68 -
03:55 -3,2 -8,2 11,3 West 12,9 1021,2 68 -
04:00 -3,2 -8,2 12,9 West 14,5 1021,2 68 -
04:05 -3,2 -8,3 12,9 West 14,5 1021,2 68 -
04:10 -3,3 -8,4 11,3 West 14,5 1021,2 68 -
04:15 -3,4 -8,5 12,9 West 14,5 1021,2 68 -
04:20 -3,4 -8,3 12,9 West 14,5 1021,2 69 -
04:25 -3,4 -8,3 12,9 West 14,5 1021,2 69 -
04:30 -3,3 -8,2 14,5 West 16,1 1021,2 69 -
04:35 -3,4 -8,5 12,9 West 16,1 1021,2 68 -
04:40 -3,6 -8,6 12,9 West 14,5 1020,9 68 -
04:45 -3,6 -8,6 14,5 West 16,1 1020,9 68 -
04:50 -3,5 -8,6 14,5 West 16,1 1020,9 68 -
04:55 -3,6 -8,8 16,1 West 19,3 1020,9 67 -
05:00 -3,7 -8,9 14,5 West 19,3 1020,9 67 -
05:05 -3,7 -8,8 14,5 West 16,1 1020,9 68 -
05:10 -3,8 -8,8 13,0 West 12,2 1020,9 68 -
05:15 -3,8 -8,9 9,7 West 12,9 1020,9 68 -
05:20 -4,0 -9,2 8,0 West 9,7 1020,9 67 -
05:25 -4,1 -9,1 9,7 West 11,3 1020,5 68 -
05:30 -4,1 -9,2 9,7 West 11,3 1020,5 68 -
05:35 -4,2 -9,2 8,0 WSW 9,7 1020,5 68 -
05:40 -4,2 -9,1 8,0 WSW 9,7 1020,5 69 -
05:45 -4,3 -9,1 8,0 WSW 9,7 1021,2 69 -
05:50 -4,3 -9,2 11,3 WNW 14,5 1021,2 69 -
05:55 -4,6 -9,6 12,9 WNW 16,1 1021,2 68 -
06:00 -4,6 -9,4 12,9 WNW 19,3 1020,9 69 -
06:05 -4,4 -9,3 14,8 West 12,1 1021,2 69 -
06:10 -4,4 -9,2 14,5 WNW 19,3 1021,2 69 -
06:15 -4,2 -9,1 14,5 WNW 20,9 1021,2 69 -
06:20 -4,2 -9,0 11,3 WNW 19,3 1021,2 69 -
06:25 -4,2 -9,1 11,3 WNW 16,1 1021,2 69 -
06:30 -4,3 -9,2 9,7 WNW 12,9 1021,2 69 -
06:35 -4,4 -9,3 12,9 WNW 16,1 1021,2 69 -
06:40 -4,4 -9,3 14,5 WNW 19,3 1021,2 69 -
06:45 -4,4 -9,2 11,3 WNW 16,1 1021,2 69 -
06:50 -4,4 -9,3 12,9 WNW 16,1 1021,2 69 -
06:55 -4,6 -9,4 12,9 West 16,1 1021,2 69 -
07:00 -4,6 -9,4 11,3 West 16,1 1021,2 69 -
07:05 -4,7 -9,6 12,9 West 16,1 1021,6 69 -
07:10 -4,7 -9,4 11,3 West 16,1 1021,6 70 -
07:15 -4,8 -9,4 11,3 WSW 12,9 1021,6 70 -
07:20 -4,9 -9,6 9,7 WSW 12,9 1021,6 70 -
07:25 -5,0 -9,6 11,3 WSW 12,9 1021,6 70 -
07:30 -5,0 -9,4 11,3 West 12,9 1021,6 71 -
07:35 -4,9 -9,4 11,3 WSW 14,5 1021,6 71 -
07:40 -4,9 -9,3 12,9 WSW 14,5 1021,6 71 -
07:45 -4,8 -9,3 9,7 WSW 14,5 1021,6 71 -
07:50 -4,7 -9,0 12,9 WSW 19,3 1021,9 72 -
07:55 -4,6 -8,9 12,9 West 19,3 1021,9 72 -
08:00 -4,4 -8,7 11,3 West 19,3 1021,9 72 -
08:05 -4,3 -8,6 11,3 West 14,5 1021,9 72 -
08:10 -4,1 -8,4 11,3 West 16,1 1021,9 72 -
08:15 -3,9 -8,2 11,3 West 12,9 1021,9 72 -
08:20 -3,6 -7,9 14,5 West 19,3 1021,9 72 -
08:25 -3,3 -7,6 11,3 West 19,3 1021,9 72 -
08:30 -3,1 -7,7 1,6 WNW 12,9 1021,9 71 -
08:35 -2,9 -7,5 9,7 WNW 11,3 1021,9 71 -
08:40 -2,8 -7,4 4,8 West 11,3 1021,9 71 -
08:45 -2,7 -7,3 8,0 West 11,3 1022,2 71 -
08:50 -2,6 -7,2 12,9 West 12,9 1022,2 71 -
08:55 -2,2 -6,8 11,3 West 19,3 1022,2 71 -
09:00 -1,7 -6,1 11,3 West 16,1 1022,6 72 -
09:05 -1,2 -5,9 16,1 West 19,3 1022,2 70 -
09:10 -0,8 -5,7 19,3 West 20,9 1022,2 69 -
09:15 -0,4 -5,6 19,3 West 24,1 1022,6 68 -
09:20 0,1 -5,2 14,5 West 20,9 1022,6 68 -
09:25 0,7 -4,9 19,3 West 16,6 1022,2 66 -
09:30 1,0 -4,8 14,5 WNW 20,9 1022,6 65 -
09:35 1,4 -4,6 12,9 WNW 19,3 1022,2 64 -
09:40 1,9 -4,4 12,9 WNW 20,9 1022,6 63 -
09:45 2,4 -4,1 12,9 WNW 24,1 1022,2 62 -
09:50 2,7 -4,5 14,5 WNW 20,9 1022,6 59 -
09:55 2,9 -4,3 12,9 WNW 22,5 1022,6 59 -
10:00 3,1 -4,4 14,5 WNW 19,3 1022,2 58 -
10:05 3,4 -4,3 14,5 NW 20,9 1022,6 57 -
10:10 3,6 -4,6 19,3 NNW 22,5 1022,6 55 -
10:15 3,7 -4,6 14,5 NNW 20,9 1022,6 55 -
10:20 3,8 -4,7 12,9 NW 19,3 1022,6 54 -
10:25 3,9 -4,6 12,9 NNW 19,3 1022,6 54 -
10:30 3,9 -4,8 14,5 NNW 19,3 1022,6 53 -
10:35 4,0 -4,7 12,9 NNW 19,3 1022,6 53 -
10:40 4,2 -4,6 14,5 NNW 19,3 1022,6 53 -
10:45 4,3 -4,4 14,5 NNW 19,3 1022,6 53 -
10:50 4,6 -4,2 11,3 NNW 20,9 1022,6 53 -
10:55 4,7 -4,1 14,5 NNW 19,3 1022,6 53 -
11:00 4,7 -4,1 14,5 NNW 20,9 1022,6 53 -
11:05 4,7 -3,8 16,1 NNW 20,9 1022,6 54 -
11:10 4,7 -3,8 14,5 NNW 19,3 1022,6 54 -
11:15 4,7 -3,8 14,5 North 20,9 1022,6 54 -
11:20 4,8 -3,7 14,5 North 19,3 1022,6 54 -
11:25 4,9 -3,6 12,9 North 19,3 1022,6 54 -
11:30 5,0 -3,6 12,9 North 19,3 1022,6 54 -
11:35 5,2 -3,7 12,9 North 20,9 1022,6 53 -
11:40 5,2 -3,8 19,3 North 20,9 1022,6 52 -
11:45 5,1 -3,7 14,5 North 20,9 1022,6 53 -
11:50 5,1 -3,7 14,5 North 20,9 1022,6 53 -
11:55 5,0 -3,8 14,5 North 20,9 1022,6 53 -
12:00 4,9 -3,8 12,9 North 22,5 1022,9 53 -
12:05 4,9 -3,9 16,1 North 22,5 1022,9 53 -
12:10 4,6 -3,5 19,3 NNW 25,7 1022,9 56 -
12:15 4,3 -3,1 19,3 NW 25,7 1022,9 59 -
12:20 4,1 -3,0 19,3 NNW 25,7 1022,9 60 -
12:25 3,9 -2,8 16,1 NW 25,7 1022,9 62 -
12:30 3,6 -2,6 19,3 NW 24,1 1023,2 64 -
12:35 3,4 -2,6 20,9 NW 25,7 1023,2 65 -
12:40 3,2 -2,5 20,9 NW 25,7 1023,2 66 -
12:45 3,1 -2,7 20,9 NW 27,4 1023,2 66 -
12:50 3,0 -2,6 20,9 NW 29,0 1023,2 67 -
12:55 2,8 -2,5 19,3 NW 24,1 1023,2 68 -
13:00 2,6 -2,3 14,5 NW 29,0 1023,6 70 -
13:05 2,4 -2,3 20,9 NW 27,4 1023,6 71 -
13:10 2,3 -2,3 19,3 NW 27,4 1023,6 72 -
13:15 2,1 -2,2 14,5 NW 22,5 1023,6 73 -
13:20 2,1 -2,1 16,1 NW 22,5 1023,6 74 -
13:25 1,9 -2,1 14,5 WNW 20,9 1023,6 75 -
13:30 1,8 -2,0 16,1 WNW 22,5 1023,6 76 -
13:35 1,7 -1,9 16,1 WNW 22,5 1023,6 77 -
13:40 1,6 -2,0 14,5 WNW 22,5 1023,6 77 -
13:45 1,6 -1,9 14,5 WNW 22,5 1023,6 78 -
13:50 1,5 -1,7 14,5 WNW 24,1 1023,6 79 0,25
13:55 1,4 -1,6 14,5 WNW 20,9 1023,6 80 -
14:00 1,4 -1,7 12,9 WNW 19,3 1023,6 80 -
14:05 1,4 -1,5 11,3 WNW 19,3 1023,6 81 -
14:10 1,4 -1,3 14,5 WNW 19,3 1023,6 82 -
14:15 1,3 -1,4 16,1 WNW 22,5 1023,6 82 -
14:20 1,3 -1,2 14,5 WNW 19,3 1023,6 83 -
14:25 1,4 -0,9 16,1 NW 20,9 1023,6 84 -
14:30 1,6 -0,6 14,5 WNW 22,5 1023,6 85 -
14:35 1,8 -0,3 16,1 WNW 22,5 1023,6 86 -
14:40 1,9 -0,2 19,3 WNW 24,1 1023,6 86 -
14:45 1,8 -0,4 14,5 WNW 24,1 1023,6 85 -
14:50 1,9 -0,3 14,5 WNW 20,9 1023,6 85 -
14:55 2,1 -0,2 14,5 WNW 24,1 1023,6 85 -
15:00 2,2 -0,4 12,9 WNW 22,5 1023,6 83 -
15:05 2,2 -0,9 16,1 WNW 27,4 1023,6 80 -
15:10 2,4 -0,8 19,3 WNW 25,7 1023,6 79 -
15:15 2,6 -1,1 19,3 NW 27,4 1023,6 77 -
15:20 2,6 -1,4 16,1 NW 27,4 1023,9 75 -
15:25 2,7 -1,3 20,9 NW 27,4 1023,9 75 -
15:30 2,6 -1,6 16,1 NW 29,0 1023,9 74 -
15:35 2,7 -1,5 14,5 NW 24,1 1023,9 74 -
15:40 2,7 -1,3 16,1 NW 19,3 1023,9 75 -
15:45 2,8 -1,4 14,5 NW 24,1 1023,9 74 -
15:50 2,8 -1,6 19,3 NW 27,4 1023,9 73 -
15:55 2,8 -1,6 20,9 NW 27,4 1023,9 73 -
16:00 2,9 -1,7 16,1 NW 27,4 1024,3 72 -
16:05 2,9 -1,6 16,1 NW 22,5 1024,3 72 -
16:10 3,0 -1,6 20,9 WNW 27,4 1024,3 72 -
16:15 3,0 -1,7 19,3 NW 24,1 1024,3 71 -
16:20 3,1 -1,7 22,5 NW 27,4 1024,3 71 -
16:25 3,2 -1,6 16,1 NW 25,7 1024,3 71 -
16:30 3,2 -1,6 20,9 NW 27,4 1024,3 71 -
16:35 3,2 -1,6 16,1 NW 25,7 1024,3 71 -
16:40 3,2 -1,6 19,3 NW 25,7 1024,3 71 -
16:45 3,2 -1,4 14,5 NW 22,5 1024,3 72 -
16:50 3,2 -1,6 19,3 WNW 24,1 1024,3 71 -
16:55 3,3 -1,3 12,9 WNW 20,9 1024,3 72 -
17:00 3,3 -1,6 16,1 NW 24,1 1024,3 70 -
17:05 3,4 -1,7 16,1 NW 29,0 1024,3 69 -
17:10 3,5 -1,7 14,5 WNW 19,3 1024,3 69 -
17:15 3,6 -1,6 12,9 WNW 19,3 1024,3 69 -
17:20 3,6 -1,7 12,9 WNW 19,3 1024,6 68 -
17:25 3,4 -1,9 14,5 WNW 19,3 1024,6 68 -
17:30 3,3 -1,9 12,9 WNW 19,3 1024,6 69 -
17:35 3,1 -2,1 12,9 WNW 16,1 1024,6 69 -
17:40 3,1 -2,1 9,7 WNW 14,5 1024,6 69 -
17:45 3,1 -1,9 11,3 WNW 12,9 1024,6 70 -
17:50 3,0 -2,1 9,7 WNW 16,1 1024,6 69 -
17:55 2,9 -2,2 11,3 WNW 16,1 1024,6 69 -
18:00 2,8 -2,5 11,3 WNW 14,5 1024,6 68 -
18:05 2,7 -2,6 12,9 WNW 14,5 1024,6 68 -
18:10 2,7 -2,7 12,9 WNW 14,5 1024,6 68 -
18:15 2,7 -2,6 12,9 WNW 14,5 1024,6 68 -
18:20 2,8 -2,6 11,3 WNW 14,5 1024,6 68 -
18:25 2,8 -2,7 11,3 WNW 12,9 1024,6 67 -
18:30 2,8 -2,7 11,3 WNW 14,5 1024,6 67 -
18:35 2,8 -2,7 11,3 WNW 12,9 1024,6 67 -
18:40 2,8 -2,7 9,7 WNW 12,9 1024,6 67 -
18:45 2,8 -2,6 11,3 West 11,3 1024,6 68 -
18:50 2,7 -2,7 11,3 West 11,3 1024,6 68 -
18:55 2,4 -2,9 9,7 West 11,3 1024,6 68 -
19:00 2,1 -3,1 9,7 West 9,7 1024,6 69 -
19:05 1,8 -3,1 8,0 West 9,7 1024,6 70 -
19:10 1,6 -3,1 4,8 West 8,0 1024,6 71 -
19:15 1,5 -3,2 4,8 West 8,0 1024,6 71 -
19:20 1,4 -3,3 9,7 West 11,3 1024,6 71 -
19:25 1,5 -3,0 12,9 West 14,5 1024,6 72 -
19:30 1,7 -2,8 14,5 West 16,1 1024,6 72 -
19:35 1,8 -2,9 14,5 West 19,3 1024,6 71 -
19:40 1,7 -3,0 14,5 West 16,1 1024,6 71 -
19:45 1,6 -3,1 16,1 West 19,3 1024,6 71 -
19:50 1,1 -3,8 11,3 West 16,1 1024,6 70 -
19:55 0,7 -3,9 16,1 West 19,3 1024,6 71 -
20:00 0,7 -3,8 16,1 West 19,3 1024,6 72 -
20:05 0,6 -3,9 16,1 West 19,3 1024,6 72 -
20:10 0,5 -3,9 16,1 West 19,3 1024,6 72 -
20:15 0,4 -4,2 14,5 West 19,3 1024,6 71 -
20:20 0,4 -4,2 16,1 West 19,3 1024,6 71 -
20:25 0,3 -4,3 14,5 West 19,3 1024,6 71 -
20:30 0,3 -4,2 14,5 West 16,1 1024,6 72 -
20:35 0,2 -4,2 14,5 West 16,1 1024,3 72 -
20:40 0,1 -4,6 12,9 West 16,1 1024,3 71 -
20:45 -0,1 -4,7 12,9 West 14,5 1024,3 71 -
20:50 -0,2 -4,7 12,9 West 14,5 1024,3 72 -
20:55 -0,2 -4,7 12,9 West 16,1 1024,3 72 -
21:00 -0,3 -4,9 12,9 West 16,1 1024,3 71 -
21:05 -0,3 -4,9 12,9 West 19,3 1024,3 71 -
21:10 -0,4 -5,0 11,3 West 14,5 1024,3 71 -
21:15 -0,6 -5,2 11,3 West 14,5 1024,3 71 -
21:20 -0,7 -5,3 12,9 West 14,5 1024,3 71 -
21:25 -0,8 -5,2 12,9 West 14,5 1024,3 72 -
21:30 -0,8 -5,3 12,9 West 14,5 1024,3 72 -
21:35 -0,9 -5,4 12,9 West 16,1 1024,3 72 -
21:40 -1,1 -5,5 14,5 West 16,1 1024,3 72 -
21:45 -1,2 -5,6 14,5 West 19,3 1024,3 72 -
21:50 -1,2 -5,6 14,5 West 19,3 1024,3 72 -
21:55 -1,2 -5,4 12,9 West 16,1 1024,3 73 -
22:00 -1,1 -5,3 14,5 West 19,3 1024,3 73 -
22:05 -0,9 -5,2 14,5 West 19,3 1024,3 73 -
22:10 -0,9 -5,3 12,9 West 19,3 1024,6 72 -
22:15 -0,8 -5,2 12,9 West 19,3 1024,3 72 -
22:20 -0,7 -5,2 12,9 West 16,1 1024,6 72 -
22:25 -0,8 -5,2 12,9 West 16,1 1024,6 72 -
22:30 -0,7 -5,2 12,9 West 16,1 1024,6 72 -
22:35 -0,7 -5,1 14,5 West 19,3 1024,6 72 -
22:40 -0,6 -5,1 16,1 West 19,3 1024,3 72 -
22:45 -0,6 -5,0 14,5 West 20,9 1024,3 72 -
22:50 -0,6 -5,0 16,1 West 20,9 1024,3 72 -
22:55 -0,4 -4,9 16,1 West 22,5 1024,3 72 -
23:00 -0,4 -4,8 16,1 West 22,5 1024,3 72 -
23:05 -0,3 -4,9 16,1 West 22,5 1024,3 71 -
23:10 -0,3 -4,8 16,1 West 22,5 1024,3 72 -
23:15 -0,3 -4,9 14,5 West 22,5 1023,9 71 -
23:20 -0,3 -4,9 14,5 West 22,5 1023,9 71 -
23:25 -0,3 -4,9 16,1 West 19,3 1023,9 71 -
23:30 -0,3 -4,9 16,1 West 20,9 1023,9 71 -
23:35 -0,3 -4,9 16,1 West 22,5 1023,9 71 -
23:40 -0,2 -4,8 19,3 West 20,9 1023,9 71 -
23:45 -0,2 -4,8 16,1 West 22,5 1023,9 71 -
23:50 -0,2 -4,8 19,3 West 20,9 1023,9 71 -

Download your copy of this data-set  here

Our weather-data as stored at Weather Underground. Script developed by Jim McMurry. Adapted for the template by Leuven-Template.eu